Página principal
METAR-TAF:

METAR-TAF

Aeroportos :

Aeroporto Internacional de Faa'a

Taiti, Polinésia Francesa

latitude: 17-33S, longitude: 149-37W, altura: 2 m

Observação actual do tempo

O boletim foi feito há 31 minutos, às 11:30 UTC
Vento 3 kt de sul
Temperatura 27°C
Humidade 74%
Pressão 1011 hPa
Visibilidade 10 km ou mais
Poucas nuvensa uma altura de 2600 ft

METAR: NTAA 261130Z 18003KT 9999 FEW026 27/22 Q1011 NOSIG

Hora: 02:01 (12:01 UTC)

Previsão

O boletim foi feito há 7 horas e 1 minutos, às 05:00 UTC
Previsão válida de 26 às 06 UTC a 27 às 12 UTC
Vento 3 kt com direcção variável
Visibilidade 10 km ou mais
Poucas nuvensa uma altura de 2300 ft
Nuvens dispersasa uma altura de 5000 ft
Tornando-se
de 26 às 20 UTC a 26 às 22 UTC
Vento 15 kt de es-nordeste
Tornando-se
de 27 às 05 UTC a 27 às 07 UTC
Vento 5 kt com direcção variável

TAF: NTAA 260500Z 2606/2712 VRB03KT 9999 FEW023 SCT050 BECMG 2620/2622 06015KT BECMG 2705/2707 VRB05KT

Observações e previsões do tempo de mais de 4000 aeroportos (mensagens METAR e TAF).

As estações disponíveis são os pontos amarelos e vermelhos sobre o mapa.

Mova o rato sobre o mapa para ver o nome da estação.

Depois clique no ponto para visualizar as observações e previsões meteorológicas.

Para alterar o mapa : clique nos botões verdes com uma cruz preta para aumentar o zoom; no botão verde com uma pitada de zoom; ou nas setas verdes para mapas adjacentes.


METAR-TAF: